Archival Weather

Chicago O'Hare International

Chicago, Illinois (KORD)

Report from: Monday, January 23, 2023 6:51 PM CST
Current time: Thursday, July 18, 2024 8:48 PM CDT

Current weather – Weather history – Daily summaries
Weather forecast

Temperature-2.2°C (28.0°F)
Wind chill-8.3°C (17.0°F)
Dew point-5.6°C (21.9°F)
Winds 12 kts (6.2 m/s, 13.8 mph) Southwest (230°)
Wind gusts 18 kts (9.3 m/s, 20.7 mph)
Visibility10 mi. (16.1 km)
Clouds Scattered clouds 1,000 ft. (305 m)
Ceiling: Broken clouds 25,000 ft. (7,620 m)
Altimeter30.06 in.Hg (1018 mB)
Relative humidity77 %
Density altitude-2,241 ft. (-683 m)
Sea-level pressure101.9 kPa (1019 mB, 30.09 in.Hg)
Remarks Automated weather observing station with precipitation discriminator
Flight conditions Visual Meteorological Conditions
Raw dataKORD 240051Z 23012G18KT 10SM SCT010 BKN250 M02/M06 A3006 RMK AO2 SLP189 T10221056
An error has occurred. This application may no longer respond until reloaded. Reload 🗙